Time;durP1;ratioP1;P1;durP2;ratioP2;P2;SDS_P1;SDS_P2;PMS_P1;PMS_P2;Temp;Humidity;BMP_temperature;BMP_pressure;BME280_temperature;BME280_humidity;BME280_pressure;Samples;Min_cycle;Max_cycle;Signal;HPM_P1;HPM_P2
2023/08/09 00:00:42;;;;;;;3.15;1.48;;;12.10;99.90;;;;;;5030043;28;20512;-94
2023/08/09 00:03:07;;;;;;;6.97;1.67;;;12.10;99.90;;;;;;5030125;28;20021;-94
2023/08/09 00:05:33;;;;;;;5.38;1.70;;;12.10;99.90;;;;;;5029846;28;20017;-94
2023/08/09 00:07:59;;;;;;;2.40;1.67;;;12.10;99.90;;;;;;5030792;28;20063;-94
2023/08/09 00:10:25;;;;;;;3.20;1.40;;;12.10;99.90;;;;;;5028748;28;20033;-95
2023/08/09 00:12:51;;;;;;;3.10;1.60;;;12.10;99.90;;;;;;5029311;28;20098;-94
2023/08/09 00:15:17;;;;;;;3.85;1.70;;;12.10;99.90;;;;;;5028649;28;20021;-93
2023/08/09 00:17:42;;;;;;;2.67;1.38;;;12.10;99.90;;;;;;5029261;28;20068;-93
2023/08/09 00:20:08;;;;;;;6.32;2.88;;;12.10;99.90;;;;;;5029734;28;20510;-93
2023/08/09 00:22:34;;;;;;;4.57;1.65;;;12.00;99.90;;;;;;5027861;28;20025;-94
2023/08/09 00:25:00;;;;;;;2.67;1.50;;;12.00;99.90;;;;;;5029259;28;20064;-94
2023/08/09 00:27:28;;;;;;;3.72;1.88;;;12.00;99.90;;;;;;5029122;28;20057;-94
2023/08/09 00:29:54;;;;;;;4.85;1.48;;;12.00;99.90;;;;;;5029265;28;20026;-94
2023/08/09 00:32:20;;;;;;;8.82;1.70;;;12.00;99.90;;;;;;5029243;28;20068;-94
2023/08/09 00:34:45;;;;;;;6.18;1.90;;;12.00;99.90;;;;;;5029639;28;20022;-94
2023/08/09 00:37:11;;;;;;;4.30;1.80;;;12.00;99.90;;;;;;5029540;28;20021;-94
2023/08/09 00:39:37;;;;;;;4.38;1.88;;;11.90;99.90;;;;;;5029762;28;20389;-93
2023/08/09 00:42:03;;;;;;;4.45;1.85;;;11.90;99.90;;;;;;5030607;28;20412;-93
2023/08/09 00:44:30;;;;;;;4.20;1.80;;;11.90;99.90;;;;;;5030184;28;20033;-96
2023/08/09 00:46:55;;;;;;;6.72;2.10;;;11.80;99.90;;;;;;5031128;28;20022;-95
2023/08/09 00:49:21;;;;;;;9.90;1.90;;;11.90;99.90;;;;;;5031322;28;20026;-95
2023/08/09 00:51:47;;;;;;;3.42;2.25;;;11.90;99.90;;;;;;5030758;28;20021;-95
2023/08/09 00:54:13;;;;;;;4.82;1.80;;;11.80;99.90;;;;;;5030246;28;20058;-95
2023/08/09 00:56:39;;;;;;;5.57;2.35;;;11.80;99.90;;;;;;5030444;28;20037;-95
2023/08/09 00:59:05;;;;;;;3.78;2.20;;;11.80;99.90;;;;;;5031656;28;20133;-94
2023/08/09 01:01:32;;;;;;;6.07;1.95;;;11.80;99.90;;;;;;5032433;28;20079;-95
2023/08/09 01:03:58;;;;;;;4.57;2.50;;;11.70;99.90;;;;;;5031847;28;20021;-96
2023/08/09 01:06:55;;;;;;;3.63;1.75;;;11.70;99.90;;;;;;5031842;28;20024;-95
2023/08/09 01:09:41;;;;;;;2.60;2.30;;;11.60;99.90;;;;;;5049796;28;20040;-93
2023/08/09 01:12:11;;;;;;;2.30;2.05;;;11.60;99.90;;;;;;5031181;27;20097;-94
2023/08/09 01:14:42;;;;;;;4.23;2.40;;;11.60;99.90;;;;;;5034150;28;20021;-93
2023/08/09 01:17:10;;;;;;;5.00;2.10;;;11.60;99.90;;;;;;5037430;28;20074;-95
2023/08/09 01:19:49;;;;;;;3.30;2.08;;;11.70;99.90;;;;;;5035941;28;20079;-92
2023/08/09 01:22:26;;;;;;;5.57;2.53;;;11.70;99.90;;;;;;5042910;28;20082;-95
2023/08/09 01:24:52;;;;;;;5.25;2.17;;;11.70;99.90;;;;;;5036427;28;20026;-95
2023/08/09 01:27:18;;;;;;;3.30;2.10;;;11.70;99.90;;;;;;5037655;28;20048;-94
2023/08/09 01:29:44;;;;;;;3.90;2.13;;;11.80;99.90;;;;;;5039726;28;20048;-93
2023/08/09 01:32:11;;;;;;;7.55;2.30;;;11.80;99.90;;;;;;5048690;28;20022;-94
2023/08/09 01:34:37;;;;;;;4.55;2.47;;;11.80;99.90;;;;;;5052165;28;20029;-91
2023/08/09 01:37:14;;;;;;;5.68;2.55;;;11.80;99.90;;;;;;5052845;28;20112;-92
2023/08/09 01:39:41;;;;;;;11.68;2.72;;;11.90;99.90;;;;;;5052163;28;20047;-91
2023/08/09 01:42:08;;;;;;;5.38;2.47;;;11.90;99.90;;;;;;5053042;28;20106;-92
2023/08/09 01:44:37;;;;;;;4.55;2.38;;;11.90;99.90;;;;;;5052611;28;20085;-91
2023/08/09 01:47:03;;;;;;;11.38;2.65;;;11.90;99.90;;;;;;5052560;28;20023;-92
2023/08/09 01:49:29;;;;;;;4.13;3.10;;;11.90;99.90;;;;;;5051197;28;20013;-95
2023/08/09 01:51:55;;;;;;;7.05;2.80;;;11.90;99.90;;;;;;5048779;28;20033;-96
2023/08/09 01:54:21;;;;;;;4.35;2.80;;;11.90;99.90;;;;;;5045744;28;20018;-93
2023/08/09 01:56:46;;;;;;;3.58;2.45;;;11.80;99.90;;;;;;5045238;28;20062;-94
2023/08/09 01:59:12;;;;;;;4.45;2.47;;;11.80;99.90;;;;;;5042748;28;20063;-94
2023/08/09 02:01:38;;;;;;;5.88;2.40;;;11.80;99.90;;;;;;5045713;28;20040;-94
2023/08/09 02:04:05;;;;;;;3.35;1.98;;;11.80;99.90;;;;;;5038628;28;20030;-95
2023/08/09 02:06:34;;;;;;;6.53;2.50;;;11.90;99.90;;;;;;5039024;28;20029;-96
2023/08/09 02:09:01;;;;;;;6.82;2.53;;;11.90;99.90;;;;;;5037277;28;20023;-95
2023/08/09 02:11:27;;;;;;;5.40;2.13;;;11.90;99.90;;;;;;5032558;28;20028;-95
2023/08/09 02:13:53;;;;;;;9.50;3.95;;;11.90;99.90;;;;;;5038029;28;20029;-95
2023/08/09 02:16:18;;;;;;;6.13;2.20;;;11.80;99.90;;;;;;5043658;28;20046;-95
2023/08/09 02:18:45;;;;;;;4.03;2.10;;;11.90;99.90;;;;;;5041338;28;20037;-96
2023/08/09 02:21:11;;;;;;;4.22;2.00;;;11.90;99.90;;;;;;5037023;28;20021;-96
2023/08/09 02:23:37;;;;;;;4.93;2.03;;;11.90;99.90;;;;;;5037853;28;20093;-95
2023/08/09 02:26:04;;;;;;;8.32;2.03;;;11.90;99.90;;;;;;5034883;28;20017;-93
2023/08/09 02:28:30;;;;;;;3.10;2.00;;;11.80;99.90;;;;;;5033353;28;20029;-95
2023/08/09 02:30:56;;;;;;;4.47;2.05;;;11.80;99.90;;;;;;5033153;28;20587;-95
2023/08/09 02:33:22;;;;;;;5.30;2.00;;;11.80;99.90;;;;;;5032235;28;20021;-95
2023/08/09 02:35:54;;;;;;;2.55;1.70;;;11.80;99.90;;;;;;5030574;28;20043;-94
2023/08/09 02:38:23;;;;;;;3.47;1.73;;;11.80;99.90;;;;;;5032948;28;20046;-94
2023/08/09 02:40:49;;;;;;;2.85;1.88;;;11.80;99.90;;;;;;5032395;28;20027;-95
2023/08/09 02:43:16;;;;;;;3.70;1.60;;;11.80;99.90;;;;;;5034765;28;20033;-95
2023/08/09 02:45:42;;;;;;;4.18;2.30;;;11.80;99.90;;;;;;5035388;28;20113;-96
2023/08/09 02:48:08;;;;;;;4.88;1.38;;;11.80;99.90;;;;;;5033587;28;20041;-95
2023/08/09 02:50:34;;;;;;;3.90;1.67;;;11.80;99.90;;;;;;5033414;28;20134;-94
2023/08/09 02:53:01;;;;;;;2.45;1.73;;;11.90;99.90;;;;;;5032854;28;20476;-96
2023/08/09 02:55:27;;;;;;;5.55;1.70;;;11.90;99.90;;;;;;5032784;28;20029;-94
2023/08/09 02:57:53;;;;;;;1.95;1.40;;;11.90;99.90;;;;;;5032351;28;20028;-95
2023/08/09 03:00:19;;;;;;;4.47;1.38;;;11.90;99.90;;;;;;5032726;28;20025;-95
2023/08/09 03:02:45;;;;;;;5.25;1.80;;;11.90;99.90;;;;;;5031832;28;20086;-96
2023/08/09 03:05:10;;;;;;;3.67;1.58;;;11.90;99.90;;;;;;5031581;28;20026;-95
2023/08/09 03:07:36;;;;;;;5.78;1.50;;;11.90;99.90;;;;;;5032359;28;20021;-96
2023/08/09 03:10:03;;;;;;;1.85;1.60;;;11.90;99.90;;;;;;5032407;28;20094;-94
2023/08/09 03:12:30;;;;;;;1.83;1.60;;;11.90;99.90;;;;;;5031649;28;20030;-94
2023/08/09 03:14:56;;;;;;;6.25;1.42;;;11.90;99.90;;;;;;5030845;28;20021;-95
2023/08/09 03:17:21;;;;;;;4.07;1.55;;;11.90;99.90;;;;;;5032205;28;20025;-95
2023/08/09 03:19:49;;;;;;;2.65;1.50;;;12.00;99.90;;;;;;5032554;28;20037;-93
2023/08/09 03:22:15;;;;;;;3.42;1.50;;;11.90;99.90;;;;;;5031474;28;20029;-95
2023/08/09 03:24:41;;;;;;;6.00;1.60;;;11.90;99.90;;;;;;5031351;28;20025;-95
2023/08/09 03:27:06;;;;;;;2.30;1.30;;;11.90;99.90;;;;;;5031586;28;20034;-95
2023/08/09 03:29:32;;;;;;;4.45;1.42;;;11.90;99.90;;;;;;5031879;28;20025;-94
2023/08/09 03:31:58;;;;;;;6.00;1.67;;;11.90;99.90;;;;;;5030272;28;20384;-94
2023/08/09 03:34:23;;;;;;;2.63;1.45;;;11.90;99.90;;;;;;5030947;28;20029;-95
2023/08/09 03:36:49;;;;;;;4.13;1.50;;;11.90;99.90;;;;;;5031166;28;20033;-95
2023/08/09 03:39:15;;;;;;;5.47;1.55;;;11.90;99.90;;;;;;5030790;28;20049;-94
2023/08/09 03:41:41;;;;;;;1.73;1.30;;;11.90;99.90;;;;;;5030888;28;20504;-96
2023/08/09 03:44:07;;;;;;;3.33;1.13;;;11.90;99.90;;;;;;5040342;28;20029;-93
2023/08/09 03:46:34;;;;;;;2.95;1.35;;;11.80;99.90;;;;;;5034133;28;20040;-96
2023/08/09 03:49:00;;;;;;;2.72;1.48;;;11.80;99.90;;;;;;5029506;28;20024;-95
2023/08/09 03:51:26;;;;;;;2.78;1.58;;;11.80;99.90;;;;;;5031169;28;20048;-96
2023/08/09 03:53:52;;;;;;;7.15;1.90;;;11.80;99.90;;;;;;5030917;28;20041;-95
2023/08/09 03:56:17;;;;;;;3.55;1.63;;;11.70;99.90;;;;;;5030216;28;20037;-95
2023/08/09 03:58:43;;;;;;;5.43;1.25;;;11.70;99.90;;;;;;5030020;28;20045;-94
2023/08/09 04:01:09;;;;;;;3.75;1.60;;;11.70;99.90;;;;;;5030730;28;20026;-94
2023/08/09 04:03:34;;;;;;;4.10;1.80;;;11.70;99.90;;;;;;5030151;27;20025;-94
2023/08/09 04:06:02;;;;;;;2.90;2.10;;;11.60;99.90;;;;;;5030346;28;20033;-94
2023/08/09 04:08:30;;;;;;;5.47;2.25;;;11.60;99.90;;;;;;5029802;28;20018;-94
2023/08/09 04:10:56;;;;;;;8.18;3.85;;;11.60;99.90;;;;;;5029765;28;20033;-95
2023/08/09 04:13:21;;;;;;;6.03;3.45;;;11.60;99.90;;;;;;5029812;28;20021;-94
2023/08/09 04:15:47;;;;;;;8.50;3.90;;;11.50;99.90;;;;;;5030020;28;20021;-95
2023/08/09 04:18:16;;;;;;;10.13;3.47;;;11.50;99.90;;;;;;5029677;28;20033;-95
2023/08/09 04:20:43;;;;;;;11.10;3.70;;;11.50;99.90;;;;;;5030846;28;20051;-96
2023/08/09 04:23:08;;;;;;;6.05;3.42;;;11.50;99.90;;;;;;5029979;28;20066;-95
2023/08/09 04:25:35;;;;;;;8.27;3.88;;;11.50;99.90;;;;;;5031469;28;20034;-96
2023/08/09 04:28:01;;;;;;;8.43;3.78;;;11.50;99.90;;;;;;5032270;28;20026;-94
2023/08/09 04:30:28;;;;;;;8.27;4.57;;;11.50;99.90;;;;;;5031874;28;20022;-95
2023/08/09 04:32:53;;;;;;;9.93;4.88;;;11.50;99.90;;;;;;5030477;28;20032;-95
2023/08/09 04:35:19;;;;;;;9.80;4.65;;;11.50;99.90;;;;;;5014810;28;20026;-93
2023/08/09 04:37:45;;;;;;;6.10;4.20;;;11.50;99.90;;;;;;5035815;28;20045;-95
2023/08/09 04:40:12;;;;;;;12.35;4.10;;;11.50;99.90;;;;;;5034306;28;20138;-95
2023/08/09 04:42:39;;;;;;;5.90;3.80;;;11.50;99.90;;;;;;5033629;28;20021;-95
2023/08/09 04:45:08;;;;;;;8.52;3.72;;;11.50;99.90;;;;;;5036939;28;20063;-95
2023/08/09 04:47:33;;;;;;;7.90;4.60;;;11.50;99.90;;;;;;5034870;28;20029;-95
2023/08/09 04:49:59;;;;;;;5.20;3.13;;;11.50;99.90;;;;;;5034889;28;20017;-93
2023/08/09 04:52:24;;;;;;;8.15;4.78;;;11.50;99.90;;;;;;5032965;28;20088;-96
2023/08/09 04:54:50;;;;;;;5.22;3.53;;;11.40;99.90;;;;;;5032699;28;20021;-96
2023/08/09 04:57:16;;;;;;;12.90;4.90;;;11.40;99.90;;;;;;5037877;28;20068;-95
2023/08/09 04:59:41;;;;;;;9.65;3.80;;;11.50;99.90;;;;;;5033959;27;20445;-95
2023/08/09 05:02:07;;;;;;;9.63;5.55;;;11.50;99.90;;;;;;5041368;28;20034;-93
2023/08/09 05:04:32;;;;;;;12.98;6.32;;;11.50;99.90;;;;;;5038438;28;20391;-93
2023/08/09 05:07:00;;;;;;;10.45;5.50;;;11.60;99.90;;;;;;5037474;28;20021;-96
2023/08/09 05:09:26;;;;;;;11.15;6.40;;;11.60;99.90;;;;;;5037122;28;20041;-94
2023/08/09 05:11:52;;;;;;;9.27;5.43;;;11.60;99.90;;;;;;5044621;28;20025;-95
2023/08/09 05:14:18;;;;;;;6.53;4.45;;;11.60;99.90;;;;;;5043723;28;20038;-95
2023/08/09 05:16:43;;;;;;;11.40;6.35;;;11.70;99.90;;;;;;5047682;28;20045;-96
2023/08/09 05:19:09;;;;;;;9.35;4.97;;;11.70;99.90;;;;;;5051570;28;20021;-95
2023/08/09 05:21:34;;;;;;;13.50;5.38;;;11.70;99.90;;;;;;5046632;28;20168;-94
2023/08/09 05:24:00;;;;;;;7.75;4.90;;;11.70;99.90;;;;;;5045337;28;20025;-95
2023/08/09 05:26:26;;;;;;;9.00;4.30;;;11.70;99.90;;;;;;5044715;28;20055;-96
2023/08/09 05:28:52;;;;;;;9.43;5.88;;;11.80;99.90;;;;;;5043407;28;20040;-95
2023/08/09 05:31:17;;;;;;;10.13;4.97;;;11.80;99.90;;;;;;5043677;28;20036;-95
2023/08/09 05:33:43;;;;;;;8.38;5.38;;;11.80;99.90;;;;;;5042730;28;20029;-96
2023/08/09 05:36:09;;;;;;;10.40;4.90;;;11.80;99.90;;;;;;5041864;28;20030;-96
2023/08/09 05:38:34;;;;;;;12.85;5.78;;;11.90;99.90;;;;;;5041744;28;20113;-96
2023/08/09 05:41:00;;;;;;;12.77;4.85;;;11.90;99.90;;;;;;5039916;28;20021;-95
2023/08/09 05:43:26;;;;;;;6.60;4.40;;;11.90;99.90;;;;;;5043962;28;20022;-95
2023/08/09 05:45:51;;;;;;;13.48;4.57;;;11.80;99.90;;;;;;5044336;28;20491;-95
2023/08/09 05:48:17;;;;;;;12.75;3.97;;;11.90;99.90;;;;;;5039834;28;20033;-93
2023/08/09 05:50:42;;;;;;;7.68;3.35;;;11.80;99.90;;;;;;5034930;28;20089;-95
2023/08/09 05:53:09;;;;;;;9.82;4.30;;;11.90;99.90;;;;;;5034891;28;20081;-96
2023/08/09 05:55:35;;;;;;;6.15;4.20;;;11.90;99.90;;;;;;5032909;28;20041;-95
2023/08/09 05:58:01;;;;;;;6.95;3.95;;;11.90;99.90;;;;;;5035040;28;20026;-95
2023/08/09 06:00:27;;;;;;;12.68;4.20;;;11.80;99.90;;;;;;5036519;28;20064;-94
2023/08/09 06:02:53;;;;;;;6.40;4.25;;;11.80;99.90;;;;;;5036466;28;20090;-93
2023/08/09 06:05:23;;;;;;;5.82;4.25;;;11.90;99.90;;;;;;5035345;28;20104;-93
2023/08/09 06:07:49;;;;;;;7.72;4.78;;;11.90;99.90;;;;;;5034328;28;20014;-95
2023/08/09 06:10:14;;;;;;;8.85;3.78;;;11.90;99.90;;;;;;5038760;28;20105;-96
2023/08/09 06:12:40;;;;;;;5.72;3.00;;;11.90;99.90;;;;;;5029815;28;20029;-95
2023/08/09 06:15:06;;;;;;;6.75;3.83;;;11.90;99.90;;;;;;5034016;28;20030;-95
2023/08/09 06:17:32;;;;;;;6.70;4.45;;;12.00;99.90;;;;;;5042740;28;20098;-96
2023/08/09 06:19:59;;;;;;;7.13;4.07;;;12.00;99.90;;;;;;5042423;28;20029;-94
2023/08/09 06:22:24;;;;;;;7.10;3.63;;;12.00;99.90;;;;;;5045344;27;20006;-90
2023/08/09 06:24:50;;;;;;;5.18;3.20;;;12.10;99.90;;;;;;5059502;28;20104;-91
2023/08/09 06:27:16;;;;;;;3.13;2.75;;;12.20;99.90;;;;;;5072530;28;20014;-91
2023/08/09 06:29:42;;;;;;;9.73;3.25;;;12.20;99.90;;;;;;5061234;28;20022;-93
2023/08/09 06:32:08;;;;;;;6.70;3.50;;;12.30;99.90;;;;;;5060120;28;20198;-92
2023/08/09 06:34:33;;;;;;;5.00;3.25;;;12.40;99.90;;;;;;5064700;28;20012;-90
2023/08/09 06:36:59;;;;;;;8.05;3.92;;;12.40;99.90;;;;;;5062786;28;20013;-93
2023/08/09 06:39:25;;;;;;;5.25;3.13;;;12.50;99.90;;;;;;5066565;28;20065;-92
2023/08/09 06:41:52;;;;;;;8.60;4.00;;;12.60;99.90;;;;;;5063500;28;20049;-91
2023/08/09 06:44:17;;;;;;;7.47;3.45;;;12.70;99.90;;;;;;5069263;28;20020;-91
2023/08/09 06:46:44;;;;;;;8.32;4.18;;;12.70;99.90;;;;;;5065774;28;20040;-92
2023/08/09 06:49:10;;;;;;;5.88;3.55;;;12.80;99.90;;;;;;5067642;28;20013;-90
2023/08/09 06:51:36;;;;;;;7.18;4.50;;;12.90;99.90;;;;;;5070869;28;20030;-94
2023/08/09 06:54:02;;;;;;;5.95;4.00;;;12.90;99.90;;;;;;5070795;28;20071;-90
2023/08/09 06:56:27;;;;;;;6.10;4.15;;;13.00;99.90;;;;;;5050695;28;20013;-93
2023/08/09 06:58:53;;;;;;;8.13;3.92;;;13.10;99.90;;;;;;5055755;28;20045;-92
2023/08/09 07:01:19;;;;;;;5.40;3.85;;;13.20;99.90;;;;;;5064316;28;20014;-94
2023/08/09 07:03:46;;;;;;;9.20;4.40;;;13.20;99.90;;;;;;5061889;28;20021;-93
2023/08/09 07:06:12;;;;;;;11.82;4.78;;;13.30;99.90;;;;;;5063202;28;20029;-94
2023/08/09 07:08:37;;;;;;;5.82;4.45;;;13.40;99.90;;;;;;5060639;28;20027;-93
2023/08/09 07:11:03;;;;;;;5.00;3.70;;;13.40;99.90;;;;;;5060705;28;20035;-94
2023/08/09 07:13:29;;;;;;;5.95;4.70;;;13.50;99.90;;;;;;5051459;28;20044;-94
2023/08/09 07:15:55;;;;;;;14.18;5.28;;;13.50;99.90;;;;;;5040901;28;20028;-94
2023/08/09 07:18:21;;;;;;;9.35;4.00;;;13.60;99.90;;;;;;5050501;28;20037;-94
2023/08/09 07:20:46;;;;;;;9.55;4.35;;;13.70;99.90;;;;;;5030994;28;20161;-94
2023/08/09 07:23:12;;;;;;;6.88;4.07;;;13.70;99.90;;;;;;5029849;28;20026;-93
2023/08/09 07:25:38;;;;;;;6.90;3.90;;;13.80;99.90;;;;;;5030577;28;20030;-95
2023/08/09 07:28:05;;;;;;;9.85;3.85;;;13.90;99.90;;;;;;5034941;28;20025;-93
2023/08/09 07:30:30;;;;;;;6.65;4.00;;;13.90;99.90;;;;;;5032759;28;20061;-94
2023/08/09 07:32:56;;;;;;;6.68;3.70;;;13.90;99.90;;;;;;5037357;28;20089;-93
2023/08/09 07:35:22;;;;;;;6.05;3.78;;;14.00;99.90;;;;;;5044236;28;20122;-95
2023/08/09 07:37:47;;;;;;;6.85;3.40;;;14.10;99.90;;;;;;5040394;28;20046;-95
2023/08/09 07:40:14;;;;;;;7.00;3.88;;;14.20;99.90;;;;;;5038360;28;20021;-93
2023/08/09 07:42:41;;;;;;;6.07;3.90;;;14.20;99.90;;;;;;5032103;28;20508;-92
2023/08/09 07:45:07;;;;;;;5.95;3.20;;;14.30;99.90;;;;;;5031034;27;20425;-93
2023/08/09 07:47:33;;;;;;;7.72;3.15;;;14.40;99.90;;;;;;5030536;28;20036;-92
2023/08/09 07:50:00;;;;;;;4.32;2.50;;;14.50;99.90;;;;;;5030802;27;20030;-93
2023/08/09 07:52:26;;;;;;;8.30;2.95;;;14.60;99.90;;;;;;5029353;28;20025;-92
2023/08/09 07:54:51;;;;;;;5.85;3.03;;;14.70;99.90;;;;;;5031469;28;20093;-94
2023/08/09 07:57:17;;;;;;;3.40;2.42;;;14.70;99.90;;;;;;5030041;28;20060;-91
2023/08/09 07:59:44;;;;;;;2.38;1.88;;;14.80;99.90;;;;;;5034409;27;20045;-92
2023/08/09 08:02:10;;;;;;;2.90;2.17;;;14.90;99.90;;;;;;5030075;28;20032;-92
2023/08/09 08:04:36;;;;;;;5.57;1.80;;;14.90;99.90;;;;;;5032326;28;20814;-91
2023/08/09 08:07:03;;;;;;;4.57;2.00;;;15.00;99.90;;;;;;5031315;28;20097;-92
2023/08/09 08:09:32;;;;;;;1.85;1.55;;;15.10;99.90;;;;;;5031473;28;20029;-92
2023/08/09 08:11:58;;;;;;;5.10;2.30;;;15.20;99.90;;;;;;5031908;28;20025;-91
2023/08/09 08:14:24;;;;;;;6.45;2.10;;;15.20;99.90;;;;;;5032725;27;20041;-91
2023/08/09 08:16:50;;;;;;;4.70;1.30;;;15.20;99.90;;;;;;5030548;28;20036;-92
2023/08/09 08:19:15;;;;;;;2.63;1.60;;;15.30;99.90;;;;;;5031744;27;20450;-91
2023/08/09 08:21:41;;;;;;;4.03;1.70;;;15.30;99.90;;;;;;5030609;28;20373;-91
2023/08/09 08:24:09;;;;;;;4.90;1.65;;;15.40;99.90;;;;;;5036149;28;20078;-92
2023/08/09 08:26:35;;;;;;;3.80;1.75;;;15.40;99.90;;;;;;5029795;28;20052;-92
2023/08/09 08:29:01;;;;;;;3.33;1.55;;;15.50;99.90;;;;;;5030014;28;20053;-91
2023/08/09 08:31:27;;;;;;;2.28;1.45;;;15.60;99.90;;;;;;5031666;28;20026;-92
2023/08/09 08:33:54;;;;;;;3.05;1.35;;;15.60;99.90;;;;;;5035752;27;20034;-92
2023/08/09 08:36:22;;;;;;;2.33;1.50;;;15.70;99.90;;;;;;5032302;28;20029;-92
2023/08/09 08:38:49;;;;;;;4.47;1.90;;;15.70;99.90;;;;;;5033248;27;20045;-92
2023/08/09 08:41:14;;;;;;;2.08;1.55;;;15.90;99.90;;;;;;5035389;28;20029;-93
2023/08/09 08:43:40;;;;;;;2.95;1.77;;;15.90;99.90;;;;;;5044435;28;20391;-92
2023/08/09 08:46:06;;;;;;;3.60;1.83;;;16.10;99.90;;;;;;5038852;28;20058;-93
2023/08/09 08:48:35;;;;;;;2.47;1.55;;;16.20;99.90;;;;;;5042782;27;20047;-94
2023/08/09 08:51:05;;;;;;;2.65;1.80;;;16.30;99.90;;;;;;5042834;28;20021;-93
2023/08/09 08:53:32;;;;;;;3.67;1.55;;;16.40;99.90;;;;;;5038002;27;20018;-94
2023/08/09 08:55:58;;;;;;;3.95;1.92;;;16.40;99.90;;;;;;5032978;27;20053;-95
2023/08/09 08:58:24;;;;;;;5.15;2.10;;;16.60;99.90;;;;;;5033936;28;20030;-90
2023/08/09 09:00:49;;;;;;;2.30;1.70;;;16.70;99.90;;;;;;5032564;28;20082;-94
2023/08/09 09:03:15;;;;;;;3.58;1.95;;;16.80;99.90;;;;;;5030690;28;20025;-93
2023/08/09 09:05:41;;;;;;;5.18;2.60;;;17.00;99.90;;;;;;5031437;27;20045;-92
2023/08/09 09:08:06;;;;;;;4.32;2.30;;;17.20;99.90;;;;;;5030468;28;20387;-92
2023/08/09 09:10:32;;;;;;;4.65;2.40;;;17.20;99.90;;;;;;5030314;28;20020;-94
2023/08/09 09:12:58;;;;;;;4.75;2.47;;;17.40;99.90;;;;;;5029644;28;20078;-93
2023/08/09 09:15:25;;;;;;;5.32;2.70;;;17.40;99.90;;;;;;5033147;28;20032;-93
2023/08/09 09:17:51;;;;;;;2.97;2.55;;;17.60;99.90;;;;;;5028884;28;20025;-94
2023/08/09 09:20:21;;;;;;;3.25;2.50;;;17.70;99.90;;;;;;5030349;27;20090;-92
2023/08/09 09:22:48;;;;;;;4.10;2.37;;;17.80;99.90;;;;;;5029319;28;20037;-92
2023/08/09 09:25:14;;;;;;;3.53;1.95;;;17.90;99.90;;;;;;5033101;27;20040;-92
2023/08/09 09:27:40;;;;;;;4.55;2.47;;;18.10;99.90;;;;;;5028723;28;20021;-92
2023/08/09 09:30:14;;;;;;;2.53;2.17;;;18.20;99.90;;;;;;5034410;28;20030;-93
2023/08/09 09:32:49;;;;;;;2.88;2.00;;;18.30;99.90;;;;;;5027433;28;20056;-93
2023/08/09 09:35:20;;;;;;;5.03;2.15;;;18.40;99.90;;;;;;5028035;28;20025;-93
2023/08/09 09:37:50;;;;;;;3.83;2.42;;;18.50;99.90;;;;;;5029574;28;20045;-92
2023/08/09 09:40:24;;;;;;;;;;;18.40;99.90;;;;;;5031713;28;20033;-93
2023/08/09 09:42:54;;;;;;;2.47;1.88;;;18.50;99.90;;;;;;5031928;28;20371;-92
2023/08/09 09:45:25;;;;;;;3.28;1.73;;;18.60;99.90;;;;;;5029174;27;20487;-91
2023/08/09 09:47:53;;;;;;;3.17;1.90;;;18.60;99.90;;;;;;5033155;28;20034;-91
2023/08/09 09:50:22;;;;;;;4.82;1.88;;;18.70;99.90;;;;;;5028602;28;20094;-93
2023/08/09 09:52:49;;;;;;;3.83;1.70;;;18.80;99.90;;;;;;5026609;28;20013;-92
2023/08/09 09:55:16;;;;;;;4.20;1.52;;;18.90;99.90;;;;;;5030290;28;20033;-93
2023/08/09 09:57:42;;;;;;;2.17;1.30;;;19.10;99.90;;;;;;5029377;28;20033;-92
2023/08/09 10:00:17;;;;;;;2.05;1.55;;;19.30;99.90;;;;;;5034601;27;20037;-93
2023/08/09 10:02:51;;;;;;;2.50;1.30;;;19.50;99.90;;;;;;5032913;28;20033;-93
2023/08/09 10:05:22;;;;;;;2.90;1.20;;;19.80;99.90;;;;;;5040892;27;20113;-93
2023/08/09 10:07:49;;;;;;;;;;;19.90;99.90;;;;;;5037587;28;20400;-94
2023/08/09 10:10:16;;;;;;;2.55;1.20;;;20.10;99.90;;;;;;5028635;28;19991;-94
2023/08/09 10:12:47;;;;;;;1.80;1.30;;;20.20;99.90;;;;;;5027899;28;20029;-91
2023/08/09 10:15:17;;;;;;;4.15;1.50;;;20.10;99.90;;;;;;5030241;28;20043;-94
2023/08/09 10:17:45;;;;;;;2.83;1.55;;;20.20;99.90;;;;;;5027761;28;20104;-95
2023/08/09 10:20:13;;;;;;;2.53;1.33;;;20.30;99.90;;;;;;5035017;27;20501;-94
2023/08/09 10:22:39;;;;;;;3.15;1.77;;;20.40;99.80;;;;;;5043867;28;20029;-93
2023/08/09 10:25:06;;;;;;;2.78;1.83;;;20.40;99.30;;;;;;5045862;28;20033;-93
2023/08/09 10:27:53;;;;;;;3.20;2.28;;;20.50;98.70;;;;;;5036764;28;20029;-93
2023/08/09 10:30:28;;;;;;;5.90;1.92;;;20.50;98.10;;;;;;5041880;28;20022;-94
2023/08/09 10:32:57;;;;;;;2.92;2.10;;;20.50;97.20;;;;;;5035950;28;20025;-94
2023/08/09 10:35:52;;;;;;;1.87;1.73;;;20.70;96.20;;;;;;5037079;28;20299;-93
2023/08/09 10:38:41;;;;;;;3.78;1.98;;;20.80;95.30;;;;;;5036873;28;20404;-93
2023/08/09 10:41:10;;;;;;;3.70;2.35;;;20.90;94.70;;;;;;5033826;28;20128;-94
2023/08/09 10:43:36;;;;;;;3.58;2.10;;;21.00;94.50;;;;;;5038517;28;20378;-94
2023/08/09 10:46:24;;;;;;;4.50;2.10;;;21.10;94.10;;;;;;5047579;28;20139;-93
2023/08/09 10:48:51;;;;;;;2.28;1.92;;;21.20;93.30;;;;;;5038299;28;20063;-94
2023/08/09 10:51:19;;;;;;;2.00;1.80;;;21.10;92.80;;;;;;5043595;28;20553;-94
2023/08/09 10:54:05;;;;;;;2.70;1.55;;;21.10;92.50;;;;;;5042133;28;20620;-93
2023/08/09 10:57:06;;;;;;;5.78;1.58;;;21.20;92.50;;;;;;5026470;28;20025;-95
2023/08/09 10:59:31;;;;;;;1.60;1.45;;;21.20;92.20;;;;;;5040440;28;20033;-92
2023/08/09 11:01:58;;;;;;;2.92;1.92;;;21.30;92.10;;;;;;5042762;28;20029;-93
2023/08/09 11:04:23;;;;;;;2.45;1.70;;;21.50;92.10;;;;;;5040871;28;20030;-93
2023/08/09 11:06:50;;;;;;;4.35;1.52;;;21.70;91.70;;;;;;5040313;28;20034;-94
2023/08/09 11:09:18;;;;;;;1.70;1.60;;;21.90;91.10;;;;;;5029016;28;20029;-94
2023/08/09 11:11:46;;;;;;;2.65;1.73;;;22.20;90.60;;;;;;5028716;28;20033;-93
2023/08/09 11:14:14;;;;;;;2.88;1.63;;;22.50;89.10;;;;;;5027034;28;20026;-93
2023/08/09 11:16:40;;;;;;;2.78;1.83;;;22.60;86.80;;;;;;5027869;28;20026;-93
2023/08/09 11:19:16;;;;;;;3.88;1.67;;;22.70;85.80;;;;;;5027916;28;20040;-94
2023/08/09 11:21:46;;;;;;;2.25;1.40;;;22.80;84.70;;;;;;5028712;28;20116;-94
2023/08/09 11:24:13;;;;;;;1.85;1.30;;;22.90;84.30;;;;;;5028354;28;20017;-93
2023/08/09 11:26:49;;;;;;;1.55;1.42;;;23.00;83.30;;;;;;5031820;28;20021;-95
2023/08/09 11:29:16;;;;;;;2.95;1.92;;;23.10;83.00;;;;;;5029722;28;20024;-95
2023/08/09 11:31:45;;;;;;;2.08;1.60;;;23.20;82.70;;;;;;5030057;28;20105;-95
2023/08/09 11:34:12;;;;;;;3.05;1.48;;;23.40;81.80;;;;;;5040256;28;20026;-93
2023/08/09 11:36:40;;;;;;;1.67;1.33;;;23.60;80.70;;;;;;5047728;28;20405;-94
2023/08/09 11:39:10;;;;;;;2.90;1.17;;;23.80;79.60;;;;;;5034693;28;20048;-94
2023/08/09 11:41:46;;;;;;;3.20;1.30;;;23.90;78.70;;;;;;5049083;28;20025;-94
2023/08/09 11:44:14;;;;;;;2.63;1.15;;;24.10;77.50;;;;;;5043864;27;20026;-94
2023/08/09 11:46:43;;;;;;;1.60;1.40;;;24.20;76.20;;;;;;5042195;28;20025;-95
2023/08/09 11:49:09;;;;;;;1.50;1.20;;;24.20;75.10;;;;;;5046735;28;20029;-94
2023/08/09 11:51:36;;;;;;;2.45;1.38;;;24.20;74.70;;;;;;5044657;27;20029;-95
2023/08/09 11:54:02;;;;;;;4.45;1.90;;;24.10;74.40;;;;;;5042685;28;20063;-94
2023/08/09 11:56:34;;;;;;;3.08;1.60;;;23.90;74.20;;;;;;5053015;28;20022;-94
2023/08/09 11:59:01;;;;;;;2.30;1.27;;;23.90;74.40;;;;;;5050174;28;20033;-94
2023/08/09 12:01:35;;;;;;;3.42;1.77;;;24.00;74.40;;;;;;5050219;27;20022;-94
2023/08/09 12:04:08;;;;;;;3.72;1.42;;;24.20;74.50;;;;;;5037821;28;20029;-95
2023/08/09 12:06:40;;;;;;;2.42;1.27;;;24.50;74.10;;;;;;5033604;27;20021;-95
2023/08/09 12:09:37;;;;;;;2.90;1.20;;;24.70;72.60;;;;;;5033218;28;20026;-96
2023/08/09 12:12:33;;;;;;;2.28;1.40;;;24.90;71.70;;;;;;5035551;27;20025;-95
2023/08/09 12:14:59;;;;;;;2.00;1.20;;;25.00;71.10;;;;;;5035297;28;20033;-95
2023/08/09 12:17:27;;;;;;;1.42;1.13;;;24.90;70.70;;;;;;5032052;28;20037;-96
2023/08/09 12:20:06;;;;;;;1.30;1.10;;;25.00;70.70;;;;;;5034502;28;20068;-95
2023/08/09 12:22:32;;;;;;;2.42;1.40;;;25.00;70.40;;;;;;5031936;28;20112;-96
2023/08/09 12:24:58;;;;;;;2.30;1.20;;;25.00;70.40;;;;;;5033481;27;20017;-95
2023/08/09 12:27:24;;;;;;;2.15;1.10;;;25.10;70.30;;;;;;5032512;28;20025;-96
2023/08/09 12:29:51;;;;;;;1.92;1.15;;;25.30;70.40;;;;;;5032302;28;20030;-94
2023/08/09 12:32:18;;;;;;;1.58;1.20;;;25.60;70.20;;;;;;5035279;27;20025;-95
2023/08/09 12:34:44;;;;;;;1.45;1.30;;;25.70;68.80;;;;;;5032723;28;20077;-96
2023/08/09 12:37:11;;;;;;;3.42;1.10;;;25.50;68.60;;;;;;5037915;27;20018;-95
2023/08/09 12:39:36;;;;;;;2.78;1.20;;;25.60;68.80;;;;;;5036004;28;20053;-95
2023/08/09 12:42:02;;;;;;;2.92;1.45;;;25.60;69.10;;;;;;5039558;27;20022;-95
2023/08/09 12:44:28;;;;;;;1.67;1.25;;;25.60;69.20;;;;;;5042672;28;20045;-95
2023/08/09 12:46:54;;;;;;;1.65;1.40;;;25.60;69.50;;;;;;5032638;28;20028;-96